Time;durP1;ratioP1;P1;durP2;ratioP2;P2;SDS_P1;SDS_P2;PMS_P1;PMS_P2;Temp;Humidity;BMP_temperature;BMP_pressure;BME280_temperature;BME280_humidity;BME280_pressure;Samples;Min_cycle;Max_cycle;Signal;HPM_P1;HPM_P2
2022/08/19 00:00:13;;;;;;;19.75;17.63;;;22.00;99.90;;;;;;2097404;28;20114;-71
2022/08/19 00:01:14;;;;;;;19.13;17.23;;;22.00;99.90;;;;;;2097160;28;20470;-72
2022/08/19 00:02:15;;;;;;;18.80;17.00;;;22.00;99.90;;;;;;2097292;28;20017;-70
2022/08/19 00:03:16;;;;;;;20.00;17.55;;;22.00;99.90;;;;;;2105413;28;20686;-72
2022/08/19 00:04:18;;;;;;;19.05;17.15;;;22.00;99.90;;;;;;2105885;28;20449;-72
2022/08/19 00:05:21;;;;;;;18.95;17.15;;;22.00;99.90;;;;;;2106067;28;20024;-71
2022/08/19 00:06:21;;;;;;;17.70;15.73;;;21.90;99.90;;;;;;2105304;28;20140;-71
2022/08/19 00:07:22;;;;;;;18.90;17.00;;;22.00;99.90;;;;;;2105489;28;20107;-72
2022/08/19 00:08:23;;;;;;;21.60;18.60;;;22.00;99.90;;;;;;2106073;28;20031;-71
2022/08/19 00:09:24;;;;;;;20.88;18.77;;;22.00;99.90;;;;;;2106396;28;20746;-72
2022/08/19 00:10:25;;;;;;;20.02;17.52;;;21.90;99.90;;;;;;2106227;28;20028;-71
2022/08/19 00:11:27;;;;;;;19.73;17.60;;;21.90;99.90;;;;;;2097164;28;20111;-71
2022/08/19 00:12:28;;;;;;;19.58;17.67;;;21.90;99.90;;;;;;2097516;28;20025;-72
2022/08/19 00:13:28;;;;;;;23.10;19.55;;;21.90;99.90;;;;;;2106065;28;20028;-72
2022/08/19 00:14:32;;;;;;;21.17;18.98;;;21.90;99.90;;;;;;2106077;28;20028;-74
2022/08/19 00:15:33;;;;;;;20.23;18.13;;;21.90;99.90;;;;;;2106285;28;20027;-73
2022/08/19 00:16:34;;;;;;;20.40;18.10;;;21.90;99.90;;;;;;2106261;28;20067;-72
2022/08/19 00:17:34;;;;;;;20.10;16.83;;;21.90;99.90;;;;;;2106065;28;20062;-72
2022/08/19 00:18:35;;;;;;;22.52;20.15;;;21.90;99.90;;;;;;2105851;28;20039;-72
2022/08/19 00:19:36;;;;;;;21.25;19.13;;;21.90;99.90;;;;;;2106341;28;20221;-72
2022/08/19 00:20:40;;;;;;;21.88;17.92;;;21.80;99.90;;;;;;2106003;28;20065;-71
2022/08/19 00:21:41;;;;;;;22.33;19.95;;;21.80;99.90;;;;;;2106026;28;20112;-71
2022/08/19 00:22:42;;;;;;;20.40;18.17;;;21.80;99.90;;;;;;2106081;28;20016;-71
2022/08/19 00:23:43;;;;;;;21.98;19.77;;;21.80;99.90;;;;;;2105991;28;20601;-71
2022/08/19 00:24:46;;;;;;;22.60;20.20;;;21.80;99.90;;;;;;2104927;28;20031;-70
2022/08/19 00:25:47;;;;;;;22.05;19.27;;;21.80;99.90;;;;;;2105365;28;20024;-73
2022/08/19 00:26:48;;;;;;;22.48;19.65;;;21.80;99.90;;;;;;2105538;28;20035;-72
2022/08/19 00:27:49;;;;;;;21.52;19.23;;;21.80;99.90;;;;;;2105551;28;20075;-72
2022/08/19 00:28:50;;;;;;;22.38;20.08;;;21.80;99.90;;;;;;2105636;28;20028;-71
2022/08/19 00:29:51;;;;;;;23.15;20.55;;;21.80;99.90;;;;;;2105740;28;20367;-71
2022/08/19 00:30:52;;;;;;;20.55;18.50;;;21.80;99.90;;;;;;2096692;28;20090;-70
2022/08/19 00:31:56;;;;;;;19.80;17.80;;;21.80;99.90;;;;;;2097056;28;20028;-71
2022/08/19 00:32:57;;;;;;;23.83;20.55;;;21.90;99.90;;;;;;2105874;28;20056;-72
2022/08/19 00:33:59;;;;;;;21.98;19.67;;;21.80;99.90;;;;;;2105803;28;20070;-71
2022/08/19 00:35:00;;;;;;;22.83;20.42;;;21.80;99.90;;;;;;2104982;28;20093;-71
2022/08/19 00:36:04;;;;;;;23.30;20.80;;;21.80;99.90;;;;;;2104913;28;20039;-71
2022/08/19 00:37:05;;;;;;;23.65;20.42;;;21.80;99.90;;;;;;2105816;28;20081;-71
2022/08/19 00:38:06;;;;;;;22.13;19.75;;;21.80;99.90;;;;;;2105839;28;20024;-72
2022/08/19 00:39:08;;;;;;;20.33;18.10;;;21.80;99.90;;;;;;2096666;28;20880;-71
2022/08/19 00:40:10;;;;;;;20.27;18.15;;;21.80;99.90;;;;;;2096931;28;20046;-71
2022/08/19 00:41:17;;;;;;;20.98;18.85;;;21.80;99.90;;;;;;2106003;28;20026;-70
2022/08/19 00:42:19;;;;;;;25.25;21.10;;;21.80;99.90;;;;;;2105172;28;20115;-71
2022/08/19 00:43:23;;;;;;;22.73;20.33;;;21.80;99.90;;;;;;2104864;28;20149;-71
2022/08/19 00:44:28;;;;;;;20.90;18.80;;;21.80;99.90;;;;;;2105006;28;20024;-72
2022/08/19 00:45:32;;;;;;;24.20;20.20;;;21.70;99.90;;;;;;2097424;28;20106;-72
2022/08/19 00:46:36;;;;;;;22.70;20.38;;;21.70;99.90;;;;;;2105347;28;20065;-72
2022/08/19 00:47:37;;;;;;;23.48;20.98;;;21.70;99.90;;;;;;2105678;28;20040;-72
2022/08/19 00:48:37;;;;;;;24.30;21.80;;;21.70;99.90;;;;;;2105715;28;20110;-71
2022/08/19 00:49:50;;;;;;;23.25;20.67;;;21.70;99.90;;;;;;2105719;28;20028;-73
2022/08/19 00:50:52;;;;;;;25.60;21.52;;;21.70;99.90;;;;;;2105293;28;20038;-74
2022/08/19 00:52:00;;;;;;;23.23;20.65;;;21.60;99.90;;;;;;2104762;28;20024;-73
2022/08/19 00:53:03;;;;;;;22.52;20.27;;;21.70;99.90;;;;;;2105514;28;20028;-73
2022/08/19 00:54:05;;;;;;;24.30;21.73;;;21.60;99.90;;;;;;2096683;28;20517;-73
2022/08/19 00:55:11;;;;;;;24.45;21.58;;;21.60;99.90;;;;;;2096796;28;20028;-73
2022/08/19 00:56:12;;;;;;;27.73;21.88;;;21.60;99.90;;;;;;2105327;28;20024;-73
2022/08/19 00:57:18;;;;;;;25.05;21.95;;;21.60;99.90;;;;;;2105979;28;20390;-73
2022/08/19 00:58:21;;;;;;;24.88;22.23;;;21.60;99.90;;;;;;2106039;28;20036;-73
2022/08/19 00:59:22;;;;;;;24.63;22.13;;;21.60;99.90;;;;;;2105888;28;20107;-73
2022/08/19 01:00:25;;;;;;;24.50;21.83;;;21.60;99.90;;;;;;2105344;28;20035;-72
2022/08/19 01:01:26;;;;;;;26.67;23.10;;;21.50;99.90;;;;;;2105303;28;20031;-72
2022/08/19 01:02:28;;;;;;;25.10;21.63;;;21.50;99.90;;;;;;2105761;28;20038;-73
2022/08/19 01:03:28;;;;;;;25.00;22.15;;;21.50;99.90;;;;;;2105814;28;20031;-73
2022/08/19 01:04:29;;;;;;;24.58;21.88;;;21.50;99.90;;;;;;2105593;28;20072;-72
2022/08/19 01:05:30;;;;;;;25.00;22.30;;;21.50;99.90;;;;;;2105825;28;20016;-72
2022/08/19 01:06:32;;;;;;;23.50;20.90;;;21.50;99.90;;;;;;2105048;28;20035;-73
2022/08/19 01:07:34;;;;;;;25.25;21.92;;;21.50;99.90;;;;;;2105260;28;20032;-72
2022/08/19 01:08:35;;;;;;;24.65;20.83;;;21.50;99.90;;;;;;2105831;28;20032;-72
2022/08/19 01:09:35;;;;;;;25.67;23.05;;;21.50;99.90;;;;;;2105136;28;20706;-71
2022/08/19 01:10:44;;;;;;;24.70;22.02;;;21.50;99.90;;;;;;2105352;28;20040;-72
2022/08/19 01:11:45;;;;;;;25.23;22.63;;;21.50;99.90;;;;;;2105794;28;20040;-72
2022/08/19 01:12:47;;;;;;;25.50;22.73;;;21.50;99.90;;;;;;2105031;28;20473;-72
2022/08/19 01:13:49;;;;;;;25.40;21.92;;;21.50;99.90;;;;;;2105315;28;20036;-72
2022/08/19 01:14:51;;;;;;;24.55;22.08;;;21.50;99.90;;;;;;2105518;28;20028;-71
2022/08/19 01:16:03;;;;;;;25.92;23.10;;;21.50;99.90;;;;;;2105795;28;20043;-71
2022/08/19 01:17:06;;;;;;;25.33;22.45;;;21.50;99.90;;;;;;2104955;28;20027;-71
2022/08/19 01:18:10;;;;;;;26.02;23.23;;;21.50;99.90;;;;;;2105581;28;20539;-71
2022/08/19 01:19:21;;;;;;;27.67;24.65;;;21.50;99.90;;;;;;2107586;28;20509;-71
2022/08/19 01:20:23;;;;;;;27.48;24.13;;;21.40;99.90;;;;;;2098087;28;20601;-72
2022/08/19 01:21:32;;;;;;;28.33;25.30;;;21.40;99.90;;;;;;2104928;28;20101;-72
2022/08/19 01:22:43;;;;;;;27.10;23.83;;;21.40;99.90;;;;;;2106297;28;20032;-70
2022/08/19 01:23:45;;;;;;;28.17;24.73;;;21.40;99.90;;;;;;2105876;28;20024;-70
2022/08/19 01:24:45;;;;;;;27.23;24.00;;;21.40;99.90;;;;;;2105457;28;20508;-72
2022/08/19 01:25:52;;;;;;;26.15;22.80;;;21.40;99.90;;;;;;2105792;28;20032;-73
2022/08/19 01:26:52;;;;;;;26.75;23.63;;;21.40;99.90;;;;;;2105876;28;20056;-73
2022/08/19 01:27:53;;;;;;;29.20;24.77;;;21.40;99.90;;;;;;2105771;28;20474;-72
2022/08/19 01:28:57;;;;;;;27.90;24.90;;;21.40;99.90;;;;;;2105841;28;20099;-71
2022/08/19 01:29:57;;;;;;;28.50;25.42;;;21.40;99.90;;;;;;2105925;28;20020;-71
2022/08/19 01:30:58;;;;;;;27.77;24.88;;;21.40;99.90;;;;;;2106850;28;20024;-71
2022/08/19 01:32:01;;;;;;;25.48;22.80;;;21.30;99.90;;;;;;2106625;28;20563;-72
2022/08/19 01:33:05;;;;;;;24.73;22.15;;;21.30;99.90;;;;;;2105703;28;20032;-71
2022/08/19 01:34:07;;;;;;;26.08;23.38;;;21.40;99.90;;;;;;2106113;28;20038;-72
2022/08/19 01:35:08;;;;;;;26.25;23.55;;;21.40;99.90;;;;;;2106285;28;20397;-72
2022/08/19 01:36:12;;;;;;;29.45;25.75;;;21.40;99.90;;;;;;2106467;28;20031;-72
2022/08/19 01:37:15;;;;;;;27.92;24.80;;;21.40;99.90;;;;;;2097228;28;20199;-71
2022/08/19 01:38:25;;;;;;;26.25;23.23;;;21.40;99.90;;;;;;2098507;28;20065;-72
2022/08/19 01:39:26;;;;;;;27.00;24.10;;;21.40;99.90;;;;;;2105377;28;20085;-71
2022/08/19 01:40:30;;;;;;;28.23;24.77;;;21.40;99.90;;;;;;2105407;28;20113;-71
2022/08/19 01:41:31;;;;;;;27.50;24.60;;;21.40;99.90;;;;;;2105462;28;20032;-71
2022/08/19 01:42:32;;;;;;;26.52;23.65;;;21.30;99.90;;;;;;2104658;28;20589;-71
2022/08/19 01:43:33;;;;;;;26.65;23.27;;;21.40;99.90;;;;;;2104974;28;20020;-71
2022/08/19 01:44:36;;;;;;;28.33;25.23;;;21.40;99.90;;;;;;2105110;28;20464;-72
2022/08/19 01:45:40;;;;;;;27.83;24.42;;;21.30;99.90;;;;;;2105345;28;20122;-71
2022/08/19 01:46:41;;;;;;;26.73;23.48;;;21.30;99.90;;;;;;2105384;28;20044;-71
2022/08/19 01:47:42;;;;;;;26.85;23.45;;;21.30;99.90;;;;;;2105280;28;20028;-71
2022/08/19 01:48:44;;;;;;;24.70;22.10;;;21.30;99.90;;;;;;2105284;28;20027;-71
2022/08/19 01:49:45;;;;;;;23.77;21.27;;;21.40;99.90;;;;;;2105170;28;20035;-71
2022/08/19 01:50:47;;;;;;;26.80;23.88;;;21.40;99.90;;;;;;2104682;28;20551;-71
2022/08/19 01:51:53;;;;;;;24.55;22.05;;;21.40;99.90;;;;;;2104803;28;20036;-71
2022/08/19 01:52:53;;;;;;;29.17;24.88;;;21.40;99.90;;;;;;2105402;28;20493;-71
2022/08/19 01:53:54;;;;;;;25.98;23.25;;;21.40;99.90;;;;;;2104597;28;20039;-73
2022/08/19 01:54:55;;;;;;;25.83;23.23;;;21.40;99.90;;;;;;2104433;28;20040;-71
2022/08/19 01:55:56;;;;;;;29.38;26.17;;;21.40;99.90;;;;;;2104757;28;20234;-71
2022/08/19 01:57:05;;;;;;;26.88;23.98;;;21.40;99.90;;;;;;2096367;28;20039;-71
2022/08/19 01:58:12;;;;;;;26.08;23.23;;;21.40;99.90;;;;;;2104649;28;20074;-70
2022/08/19 01:59:18;;;;;;;29.42;26.30;;;21.40;99.90;;;;;;2105360;28;20031;-70
2022/08/19 02:00:20;;;;;;;25.30;22.50;;;21.40;99.90;;;;;;2105267;28;20057;-71
2022/08/19 02:01:21;;;;;;;24.10;21.60;;;21.40;99.90;;;;;;2104596;28;20050;-70
2022/08/19 02:02:22;;;;;;;23.25;20.98;;;21.50;99.90;;;;;;2104581;28;20102;-70
2022/08/19 02:03:23;;;;;;;24.42;21.83;;;21.50;99.90;;;;;;2104936;28;20020;-70
2022/08/19 02:04:25;;;;;;;26.23;23.52;;;21.50;99.90;;;;;;2103814;28;20088;-70
2022/08/19 02:05:25;;;;;;;27.50;24.50;;;21.50;99.90;;;;;;2104508;28;20065;-70
2022/08/19 02:06:27;;;;;;;24.42;21.83;;;21.50;99.90;;;;;;2105057;28;20036;-70
2022/08/19 02:07:29;;;;;;;25.60;22.42;;;21.50;99.90;;;;;;2105226;28;20024;-70
2022/08/19 02:08:30;;;;;;;24.75;22.25;;;21.50;99.90;;;;;;2105075;28;20094;-70
2022/08/19 02:09:32;;;;;;;23.77;21.38;;;21.50;99.90;;;;;;2105086;28;20028;-71
2022/08/19 02:10:32;;;;;;;23.38;20.92;;;21.50;99.90;;;;;;2105206;28;20067;-70
2022/08/19 02:11:35;;;;;;;27.33;24.35;;;21.50;99.90;;;;;;2105075;28;20051;-70
2022/08/19 02:12:36;;;;;;;24.58;22.10;;;21.50;99.90;;;;;;2105272;28;20539;-72
2022/08/19 02:13:37;;;;;;;25.65;23.05;;;21.50;99.90;;;;;;2105346;28;20040;-71
2022/08/19 02:14:38;;;;;;;25.48;22.77;;;21.50;99.90;;;;;;2109367;28;20024;-71
2022/08/19 02:15:39;;;;;;;27.80;23.73;;;21.50;99.90;;;;;;2108699;28;20571;-71
2022/08/19 02:16:39;;;;;;;27.25;24.50;;;21.50;99.90;;;;;;2108697;28;20024;-72
2022/08/19 02:17:41;;;;;;;26.55;23.80;;;21.40;99.90;;;;;;2104640;28;20020;-71
2022/08/19 02:18:42;;;;;;;26.95;24.05;;;21.40;99.90;;;;;;2104383;28;20028;-70
2022/08/19 02:19:43;;;;;;;27.25;24.55;;;21.40;99.90;;;;;;2105104;28;20024;-71
2022/08/19 02:20:44;;;;;;;24.73;22.10;;;21.40;99.90;;;;;;2105003;28;20371;-71
2022/08/19 02:21:45;;;;;;;24.83;22.05;;;21.40;99.90;;;;;;2105023;28;20135;-70
2022/08/19 02:22:45;;;;;;;29.45;25.17;;;21.40;99.90;;;;;;2104324;28;20555;-71
2022/08/19 02:23:47;;;;;;;27.15;24.25;;;21.40;99.90;;;;;;2104584;28;20470;-71
2022/08/19 02:24:48;;;;;;;27.35;24.45;;;21.30;99.90;;;;;;2104940;28;20035;-71
2022/08/19 02:25:50;;;;;;;26.50;23.65;;;21.40;99.90;;;;;;2104500;28;20541;-71
2022/08/19 02:26:52;;;;;;;28.02;25.10;;;21.40;99.90;;;;;;2104548;28;20658;-71
2022/08/19 02:27:53;;;;;;;26.23;23.42;;;21.40;99.90;;;;;;2105018;28;20024;-72
2022/08/19 02:28:56;;;;;;;24.15;21.60;;;21.40;99.90;;;;;;2104886;28;20020;-70
2022/08/19 02:29:56;;;;;;;24.45;21.92;;;21.40;99.90;;;;;;2104940;28;20080;-71
2022/08/19 02:31:00;;;;;;;23.95;21.50;;;21.40;99.90;;;;;;2104830;28;20417;-71
2022/08/19 02:32:00;;;;;;;22.90;20.33;;;21.40;99.90;;;;;;2104468;28;20069;-72
2022/08/19 02:33:01;;;;;;;22.45;20.20;;;21.40;99.90;;;;;;2096235;28;20486;-70
2022/08/19 02:34:02;;;;;;;21.63;19.42;;;21.50;99.90;;;;;;2104351;28;20038;-71
2022/08/19 02:35:03;;;;;;;21.17;19.13;;;21.50;99.90;;;;;;2104133;28;20081;-71
2022/08/19 02:36:06;;;;;;;20.90;18.85;;;21.50;99.90;;;;;;2104945;28;20024;-71
2022/08/19 02:38:24;;;;;;;24.83;22.30;;;21.50;99.90;;;;;;2104938;28;20040;-70
2022/08/19 02:38:28;;;;;;;25.20;22.45;;;21.50;99.90;;;;;;2104651;28;20028;-71
2022/08/19 02:39:28;;;;;;;23.67;21.27;;;21.50;99.90;;;;;;2104858;28;20070;-71
2022/08/19 02:40:33;;;;;;;24.10;21.60;;;21.50;99.90;;;;;;2104917;28;20048;-71
2022/08/19 02:41:34;;;;;;;22.30;19.95;;;21.50;99.90;;;;;;2104252;28;20016;-71
2022/08/19 02:42:35;;;;;;;26.60;23.95;;;21.50;99.90;;;;;;2095723;28;20238;-72
2022/08/19 02:43:36;;;;;;;25.15;22.55;;;21.60;99.90;;;;;;2104066;28;20035;-70
2022/08/19 02:44:36;;;;;;;25.10;22.42;;;21.50;99.90;;;;;;2103931;28;20036;-72
2022/08/19 02:45:40;;;;;;;24.70;22.20;;;21.60;99.90;;;;;;2104269;28;20023;-73
2022/08/19 02:46:41;;;;;;;24.48;21.95;;;21.50;99.90;;;;;;2096370;28;20038;-70
2022/08/19 02:47:42;;;;;;;25.13;22.55;;;21.60;99.90;;;;;;2104330;28;20039;-71
2022/08/19 02:48:43;;;;;;;25.23;22.63;;;21.60;99.90;;;;;;2104751;28;20113;-72
2022/08/19 02:49:44;;;;;;;22.67;20.35;;;21.60;99.90;;;;;;2104901;28;20424;-74
2022/08/19 02:50:46;;;;;;;24.08;21.63;;;21.60;99.90;;;;;;2104981;28;20066;-70
2022/08/19 02:51:47;;;;;;;24.80;22.30;;;21.60;99.90;;;;;;2095958;28;20040;-70
2022/08/19 02:52:47;;;;;;;25.05;22.55;;;21.60;99.90;;;;;;2095995;28;20103;-70
2022/08/19 02:53:48;;;;;;;23.90;21.52;;;21.60;99.90;;;;;;2104996;28;20028;-71
2022/08/19 02:54:49;;;;;;;23.35;20.90;;;21.60;99.90;;;;;;2104088;28;20099;-70
2022/08/19 02:55:51;;;;;;;22.63;20.42;;;21.60;99.90;;;;;;2104420;28;20474;-70
2022/08/19 02:56:51;;;;;;;25.80;23.15;;;21.60;99.90;;;;;;2103994;28;20082;-70
2022/08/19 02:57:52;;;;;;;24.25;21.63;;;21.60;99.90;;;;;;2104335;28;20031;-71
2022/08/19 02:58:54;;;;;;;24.17;21.77;;;21.60;99.90;;;;;;2104644;28;20760;-72
2022/08/19 02:59:55;;;;;;;23.45;21.15;;;21.60;99.90;;;;;;2104956;28;20020;-72
2022/08/19 03:00:57;;;;;;;24.67;22.05;;;21.60;99.90;;;;;;2104990;28;20013;-70
2022/08/19 03:01:58;;;;;;;23.55;21.20;;;21.60;99.90;;;;;;2104943;28;20501;-71
2022/08/19 03:03:00;;;;;;;26.13;23.33;;;21.60;99.90;;;;;;2104877;28;20028;-73
2022/08/19 03:04:03;;;;;;;27.80;24.02;;;21.60;99.90;;;;;;2104872;28;20020;-73
2022/08/19 03:05:05;;;;;;;25.33;22.83;;;21.60;99.90;;;;;;2104532;28;20032;-71
2022/08/19 03:06:09;;;;;;;25.83;23.23;;;21.50;99.90;;;;;;2104332;28;20051;-72
2022/08/19 03:07:13;;;;;;;22.92;20.63;;;21.50;99.90;;;;;;2096672;28;20036;-71
2022/08/19 03:08:14;;;;;;;23.13;20.90;;;21.60;99.90;;;;;;2104343;28;20059;-71
2022/08/19 03:09:15;;;;;;;23.27;20.90;;;21.60;99.90;;;;;;2105092;28;20031;-72
2022/08/19 03:10:16;;;;;;;25.15;22.63;;;21.60;99.90;;;;;;2104327;28;20505;-71
2022/08/19 03:11:20;;;;;;;22.63;20.33;;;21.60;99.90;;;;;;2104410;28;20030;-71
2022/08/19 03:12:21;;;;;;;22.95;20.55;;;21.60;99.90;;;;;;2104997;28;20039;-72
2022/08/19 03:13:23;;;;;;;23.02;20.73;;;21.60;99.90;;;;;;2105056;28;20028;-71
2022/08/19 03:14:23;;;;;;;26.10;23.45;;;21.60;99.90;;;;;;2095529;28;20036;-71
2022/08/19 03:15:24;;;;;;;25.25;22.75;;;21.60;99.90;;;;;;2096930;28;20074;-72
2022/08/19 03:16:27;;;;;;;23.17;20.67;;;21.60;99.90;;;;;;2106329;28;20040;-71
2022/08/19 03:17:28;;;;;;;23.55;21.25;;;21.60;99.90;;;;;;2106821;28;20103;-71
2022/08/19 03:18:28;;;;;;;27.98;24.90;;;21.60;99.90;;;;;;2106546;28;20039;-71
2022/08/19 03:19:31;;;;;;;28.17;25.10;;;21.60;99.90;;;;;;2106435;28;20107;-71
2022/08/19 03:20:32;;;;;;;27.45;24.67;;;21.60;99.90;;;;;;2106729;28;20036;-72
2022/08/19 03:21:34;;;;;;;25.98;23.17;;;21.60;99.90;;;;;;2106591;28;20042;-71
2022/08/19 03:22:35;;;;;;;25.55;22.95;;;21.50;99.90;;;;;;2106936;28;20066;-71
2022/08/19 03:23:36;;;;;;;25.13;22.42;;;21.60;99.90;;;;;;2106598;28;20081;-71
2022/08/19 03:24:37;;;;;;;28.98;25.38;;;21.60;99.90;;;;;;2105965;28;20060;-74
2022/08/19 03:25:45;;;;;;;28.67;25.67;;;21.50;99.90;;;;;;2106386;28;20102;-71
2022/08/19 03:26:49;;;;;;;28.38;25.20;;;21.50;99.90;;;;;;2107022;28;20024;-72
2022/08/19 03:27:50;;;;;;;26.35;23.75;;;21.50;99.90;;;;;;2115643;28;20020;-73
2022/08/19 03:28:51;;;;;;;26.27;23.52;;;21.50;99.90;;;;;;2115832;28;20048;-73
2022/08/19 03:29:51;;;;;;;26.65;23.92;;;21.50;99.90;;;;;;2116461;28;20024;-73
2022/08/19 03:30:58;;;;;;;30.15;25.85;;;21.50;99.90;;;;;;2117113;28;20035;-75
2022/08/19 03:32:04;;;;;;;29.70;26.55;;;21.50;99.90;;;;;;2117693;28;20035;-77
2022/08/19 03:33:05;;;;;;;26.30;23.63;;;21.50;99.90;;;;;;2109996;28;20020;-75
2022/08/19 03:34:06;;;;;;;26.98;24.10;;;21.50;99.90;;;;;;2117604;28;20046;-77
2022/08/19 03:35:07;;;;;;;25.58;22.90;;;21.50;99.90;;;;;;2117848;28;20053;-76
2022/08/19 03:36:14;;;;;;;29.67;26.52;;;21.50;99.90;;;;;;2113465;28;20032;-75
2022/08/19 03:37:15;;;;;;;30.25;27.08;;;21.50;99.90;;;;;;2107468;28;20012;-76
2022/08/19 03:38:16;;;;;;;29.95;26.70;;;21.40;99.90;;;;;;2107170;28;20481;-76
2022/08/19 03:39:17;;;;;;;27.63;24.77;;;21.40;99.90;;;;;;2107191;28;20498;-75
2022/08/19 03:40:18;;;;;;;27.73;24.85;;;21.40;99.90;;;;;;2106847;28;20035;-75
2022/08/19 03:41:23;;;;;;;30.60;26.77;;;21.30;99.90;;;;;;2107535;28;20024;-75
2022/08/19 03:42:24;;;;;;;30.73;27.35;;;21.40;99.90;;;;;;2107542;28;20086;-75
2022/08/19 03:43:25;;;;;;;30.05;26.85;;;21.30;99.90;;;;;;2106770;28;20520;-76
2022/08/19 03:44:26;;;;;;;26.92;24.23;;;21.40;99.90;;;;;;2098842;28;20119;-76
2022/08/19 03:45:27;;;;;;;25.27;22.77;;;21.40;99.90;;;;;;2107055;28;20036;-76
2022/08/19 03:46:30;;;;;;;28.83;25.88;;;21.40;99.90;;;;;;2098195;28;20020;-76
2022/08/19 03:47:30;;;;;;;27.75;24.65;;;21.40;99.90;;;;;;2098736;28;20510;-75
2022/08/19 03:48:33;;;;;;;27.20;24.40;;;21.40;99.90;;;;;;2106328;28;20032;-75
2022/08/19 03:49:35;;;;;;;27.90;24.58;;;21.40;99.90;;;;;;2106592;28;20024;-75
2022/08/19 03:50:41;;;;;;;28.95;25.88;;;21.40;99.90;;;;;;2106400;28;20666;-76
2022/08/19 03:51:42;;;;;;;29.83;26.45;;;21.40;99.90;;;;;;2098740;28;20067;-76
2022/08/19 03:52:50;;;;;;;29.00;25.90;;;21.40;99.90;;;;;;2098108;28;20107;-76
2022/08/19 03:53:52;;;;;;;26.50;23.80;;;21.30;99.90;;;;;;2106570;28;20115;-76
2022/08/19 03:54:52;;;;;;;31.63;26.75;;;21.30;99.90;;;;;;2106644;28;20077;-75
2022/08/19 03:55:54;;;;;;;29.00;25.52;;;21.40;99.90;;;;;;2106163;28;20089;-76
2022/08/19 03:56:56;;;;;;;28.83;24.88;;;21.40;99.90;;;;;;2097925;28;20063;-76
2022/08/19 03:57:57;;;;;;;29.60;26.38;;;21.40;99.90;;;;;;2105917;28;20024;-74
2022/08/19 03:58:59;;;;;;;28.13;25.13;;;21.40;99.90;;;;;;2106855;28;20027;-76
2022/08/19 04:00:00;;;;;;;28.33;25.00;;;21.40;99.90;;;;;;2106294;28;20103;-75
2022/08/19 04:01:01;;;;;;;26.50;23.58;;;21.40;99.90;;;;;;2098211;28;20024;-75
2022/08/19 04:02:08;;;;;;;27.13;24.30;;;21.40;99.90;;;;;;2106396;28;20813;-75
2022/08/19 04:03:09;;;;;;;27.00;24.20;;;21.40;99.90;;;;;;2106213;28;20864;-77
2022/08/19 04:04:10;;;;;;;26.02;23.35;;;21.50;99.90;;;;;;2106558;28;20036;-76
2022/08/19 04:05:11;;;;;;;25.48;22.88;;;21.40;99.90;;;;;;2106394;28;20024;-76
2022/08/19 04:06:22;;;;;;;27.60;24.67;;;21.50;99.90;;;;;;2106442;28;20378;-76
2022/08/19 04:07:22;;;;;;;27.65;24.33;;;21.50;99.90;;;;;;2107205;28;20547;-76
2022/08/19 04:08:26;;;;;;;24.80;22.20;;;21.50;99.90;;;;;;2107201;28;20073;-76
2022/08/19 04:09:27;;;;;;;28.38;24.92;;;21.50;99.90;;;;;;2107037;28;20024;-77
2022/08/19 04:10:28;;;;;;;28.75;25.77;;;21.50;99.90;;;;;;2107265;28;20125;-76
2022/08/19 04:11:41;;;;;;;25.58;22.95;;;21.50;99.90;;;;;;2107253;28;20024;-77
2022/08/19 04:12:42;;;;;;;27.33;24.52;;;21.40;99.90;;;;;;2107132;28;20039;-75
2022/08/19 04:13:44;;;;;;;25.33;22.63;;;21.50;99.90;;;;;;2106244;28;20039;-75
2022/08/19 04:14:44;;;;;;;27.27;24.58;;;21.50;99.90;;;;;;2098002;28;20498;-76
2022/08/19 04:15:46;;;;;;;29.42;25.92;;;21.40;99.90;;;;;;2106539;28;20020;-75
2022/08/19 04:16:48;;;;;;;27.45;24.55;;;21.40;99.90;;;;;;2106852;28;20386;-75
2022/08/19 04:17:49;;;;;;;27.25;24.35;;;21.40;99.90;;;;;;2106500;28;20500;-74
2022/08/19 04:18:50;;;;;;;29.30;26.13;;;21.40;99.90;;;;;;2105517;28;20028;-73
2022/08/19 04:19:50;;;;;;;30.20;26.15;;;21.40;99.90;;;;;;2105615;28;20726;-73
2022/08/19 04:20:51;;;;;;;28.40;25.40;;;21.40;99.90;;;;;;2106566;28;20043;-74
2022/08/19 04:21:54;;;;;;;25.75;23.15;;;21.40;99.90;;;;;;2105607;28;20036;-74
2022/08/19 04:22:56;;;;;;;27.65;24.75;;;21.40;99.90;;;;;;2105386;28;20051;-74
2022/08/19 04:23:58;;;;;;;28.33;25.42;;;21.40;99.90;;;;;;2106016;28;20085;-74
2022/08/19 04:25:01;;;;;;;25.52;22.83;;;21.40;99.90;;;;;;2097086;28;20073;-74
2022/08/19 04:26:02;;;;;;;29.08;25.85;;;21.40;99.90;;;;;;2097266;28;20518;-74
2022/08/19 04:27:05;;;;;;;28.95;25.83;;;21.40;99.90;;;;;;2096251;28;20625;-74
2022/08/19 04:28:07;;;;;;;27.98;24.98;;;21.50;99.90;;;;;;2105615;28;20081;-74
2022/08/19 04:29:12;;;;;;;28.10;25.10;;;21.40;99.90;;;;;;2105964;28;20035;-74
2022/08/19 04:30:14;;;;;;;28.42;25.35;;;21.40;99.90;;;;;;2105881;28;20036;-74
2022/08/19 04:31:17;;;;;;;29.70;26.40;;;21.40;99.90;;;;;;2099121;28;20573;-74
2022/08/19 04:32:18;;;;;;;29.58;26.42;;;21.50;99.90;;;;;;2106630;28;20115;-74
2022/08/19 04:33:22;;;;;;;28.70;25.45;;;21.40;99.90;;;;;;2107369;28;20046;-74
2022/08/19 04:34:25;;;;;;;29.67;26.48;;;21.40;99.90;;;;;;2106978;28;20035;-75
2022/08/19 04:35:26;;;;;;;27.33;24.30;;;21.40;99.90;;;;;;2107764;28;20036;-74
2022/08/19 04:36:30;;;;;;;26.85;23.92;;;21.40;99.90;;;;;;2108047;28;20051;-74
2022/08/19 04:37:33;;;;;;;24.60;22.20;;;21.40;99.90;;;;;;2108179;28;20036;-73
2022/08/19 04:38:34;;;;;;;24.75;22.08;;;21.40;99.90;;;;;;2107369;28;20036;-73
2022/08/19 04:42:39;;;;;;;24.10;21.60;;;21.50;99.90;;;;;;2083624;28;20029;-73
2022/08/19 04:43:39;;;;;;;23.83;21.35;;;21.50;99.90;;;;;;2098455;28;20064;-74
2022/08/19 04:44:41;;;;;;;27.00;23.45;;;21.50;99.90;;;;;;2106980;28;20062;-75
2022/08/19 04:46:00;;;;;;;23.88;21.48;;;21.50;99.90;;;;;;2097524;28;20528;-74
2022/08/19 04:47:04;;;;;;;28.00;23.38;;;21.50;99.90;;;;;;2100603;28;20020;-75
2022/08/19 04:48:05;;;;;;;25.40;22.90;;;21.50;99.90;;;;;;2106662;28;20024;-73
2022/08/19 04:49:07;;;;;;;23.92;21.42;;;21.50;99.90;;;;;;2105980;28;20640;-75
2022/08/19 04:50:11;;;;;;;25.98;23.27;;;21.50;99.90;;;;;;2105856;28;20068;-75
2022/08/19 04:51:13;;;;;;;27.00;24.20;;;21.50;99.90;;;;;;2106733;28;20036;-75
2022/08/19 04:52:13;;;;;;;30.30;25.58;;;21.50;99.90;;;;;;2106687;28;20024;-76
2022/08/19 04:53:15;;;;;;;27.67;24.45;;;21.50;99.90;;;;;;2106575;28;20107;-76
2022/08/19 04:54:18;;;;;;;28.05;24.95;;;21.50;99.90;;;;;;2106457;28;20470;-75
2022/08/19 04:55:18;;;;;;;26.70;23.88;;;21.50;99.90;;;;;;2106403;28;20088;-75
2022/08/19 04:56:20;;;;;;;24.88;22.35;;;21.50;99.90;;;;;;2106535;28;20040;-75
2022/08/19 04:57:21;;;;;;;31.63;26.95;;;21.50;99.90;;;;;;2106593;28;20024;-75
2022/08/19 04:58:24;;;;;;;28.35;25.30;;;21.50;99.90;;;;;;2106698;28;20016;-75
2022/08/19 04:59:25;;;;;;;26.00;23.38;;;21.40;99.90;;;;;;2106656;28;20039;-75
2022/08/19 05:00:26;;;;;;;27.33;24.50;;;21.40;99.90;;;;;;2106627;28;20039;-75
2022/08/19 05:01:28;;;;;;;24.83;22.33;;;21.50;99.90;;;;;;2105658;28;20111;-75
2022/08/19 05:02:29;;;;;;;32.35;25.25;;;21.50;99.90;;;;;;2105826;28;20020;-75
2022/08/19 05:03:33;;;;;;;29.35;25.42;;;21.50;99.90;;;;;;2105828;28;20024;-75
2022/08/19 05:04:33;;;;;;;29.38;25.15;;;21.50;99.90;;;;;;2106434;28;20047;-75
2022/08/19 05:05:39;;;;;;;28.95;23.83;;;21.50;99.90;;;;;;2106601;28;20474;-75
2022/08/19 05:06:39;;;;;;;35.17;25.52;;;21.50;99.90;;;;;;2106696;28;20474;-75
2022/08/19 05:07:40;;;;;;;33.58;25.85;;;21.40;99.90;;;;;;2105821;28;20050;-75
2022/08/19 05:08:45;;;;;;;32.35;25.73;;;21.40;99.90;;;;;;2098131;28;20032;-74
2022/08/19 05:09:46;;;;;;;30.63;24.63;;;21.40;99.90;;;;;;2106424;28;20040;-74
2022/08/19 05:10:49;;;;;;;26.30;23.50;;;21.40;99.90;;;;;;2105669;28;20125;-75
2022/08/19 05:11:52;;;;;;;26.27;22.80;;;21.40;99.90;;;;;;2097461;28;20032;-74
2022/08/19 05:12:52;;;;;;;26.00;23.13;;;21.40;99.90;;;;;;2097439;28;20043;-75
2022/08/19 05:13:54;;;;;;;25.52;22.83;;;21.40;99.90;;;;;;2106409;28;20436;-75
2022/08/19 05:14:56;;;;;;;23.35;20.85;;;21.40;99.90;;;;;;2106285;28;20032;-75
2022/08/19 05:15:58;;;;;;;25.00;22.40;;;21.40;99.90;;;;;;2106250;28;20020;-76
2022/08/19 05:17:00;;;;;;;24.40;21.85;;;21.40;99.90;;;;;;2105722;28;20024;-75
2022/08/19 05:23:19;;;;;;;26.92;24.23;;;21.40;99.90;;;;;;2106334;28;20102;-74
2022/08/19 05:24:21;;;;;;;27.65;24.67;;;21.40;99.90;;;;;;2105792;28;20031;-74